createdAt,value
2022-12-08T00:01:28.785Z,1.80
2022-12-08T00:03:58.042Z,1.80
2022-12-08T00:06:50.956Z,1.80
2022-12-08T00:09:38.686Z,1.79
2022-12-08T00:12:08.821Z,1.79
2022-12-08T00:14:38.795Z,1.78
2022-12-08T00:17:08.249Z,1.74
2022-12-08T00:19:36.469Z,1.75
2022-12-08T00:22:03.777Z,1.74
2022-12-08T00:24:33.491Z,1.73
2022-12-08T00:27:01.649Z,1.70
2022-12-08T00:29:29.751Z,1.69
2022-12-08T00:31:57.071Z,1.68
2022-12-08T00:34:24.388Z,1.65
2022-12-08T00:36:51.718Z,1.64
2022-12-08T00:39:19.432Z,1.61
2022-12-08T00:42:06.095Z,1.58
2022-12-08T00:44:33.392Z,1.55
2022-12-08T00:47:00.573Z,1.53
2022-12-08T00:49:27.878Z,1.49
2022-12-08T00:51:55.727Z,1.49
2022-12-08T00:54:24.104Z,1.47
2022-12-08T00:56:52.023Z,1.46
2022-12-08T00:59:19.353Z,1.44
2022-12-08T01:01:48.133Z,1.45
2022-12-08T01:04:18.308Z,1.46
2022-12-08T01:06:46.022Z,1.43
2022-12-08T01:09:15.726Z,1.38
2022-12-08T01:11:44.512Z,1.35
2022-12-08T01:14:12.755Z,1.36
2022-12-08T01:16:41.604Z,1.39
2022-12-08T01:19:13.780Z,1.42
2022-12-08T01:21:41.764Z,1.48
2022-12-08T01:24:18.078Z,1.53
2022-12-08T01:26:45.922Z,1.58
2022-12-08T01:29:13.601Z,1.62
2022-12-08T01:31:40.958Z,1.65
2022-12-08T01:34:10.250Z,1.65
2022-12-08T01:36:38.531Z,1.65
2022-12-08T01:39:08.931Z,1.63
2022-12-08T01:41:38.171Z,1.62
2022-12-08T01:44:08.744Z,1.60
2022-12-08T01:46:38.315Z,1.59
2022-12-08T01:49:22.742Z,1.57
2022-12-08T01:52:11.840Z,1.48
2022-12-08T01:54:45.600Z,1.40
2022-12-08T01:57:18.681Z,1.33
2022-12-08T01:59:51.599Z,1.28
2022-12-08T02:02:19.289Z,1.23
2022-12-08T02:04:46.833Z,1.13
2022-12-08T02:07:16.339Z,1.06
2022-12-08T02:09:44.923Z,1.00
2022-12-08T02:12:12.478Z,0.96
2022-12-08T02:14:40.033Z,0.93
2022-12-08T02:17:19.355Z,0.92
2022-12-08T02:20:32.439Z,0.93
2022-12-08T02:23:40.890Z,0.94
2022-12-08T02:26:29.611Z,0.96
2022-12-08T02:29:12.000Z,0.97
2022-12-08T02:32:26.692Z,0.97
2022-12-08T02:35:10.077Z,1.00
2022-12-08T02:38:05.404Z,0.99
2022-12-08T02:40:35.399Z,1.00
2022-12-08T02:43:26.302Z,1.02
2022-12-08T02:46:02.832Z,1.06
2022-12-08T02:48:30.535Z,1.08
2022-12-08T02:50:57.784Z,1.09
2022-12-08T02:53:28.021Z,1.08
2022-12-08T02:56:22.289Z,1.09
2022-12-08T02:59:07.887Z,1.09
2022-12-08T03:02:22.923Z,1.09
2022-12-08T03:05:02.422Z,1.10
2022-12-08T03:07:39.733Z,1.11
2022-12-08T03:10:16.554Z,1.13
2022-12-08T03:12:52.967Z,1.16
2022-12-08T03:15:22.230Z,1.19
2022-12-08T03:17:57.640Z,1.22
2022-12-08T03:20:27.424Z,1.26
2022-12-08T03:23:00.158Z,1.28
2022-12-08T03:25:30.980Z,1.30
2022-12-08T03:27:59.899Z,1.30
2022-12-08T03:30:30.702Z,1.29
2022-12-08T03:33:07.862Z,1.29
2022-12-08T03:35:39.369Z,1.29
2022-12-08T03:38:13.156Z,1.28
2022-12-08T03:40:43.620Z,1.26
2022-12-08T03:43:10.917Z,1.25
2022-12-08T03:45:38.109Z,1.22
2022-12-08T03:48:05.440Z,1.22
2022-12-08T03:50:32.669Z,1.21
2022-12-08T03:52:59.828Z,1.17
2022-12-08T03:55:27.096Z,1.15
2022-12-08T03:57:54.270Z,1.12
2022-12-08T04:00:21.746Z,1.09
2022-12-08T04:02:48.932Z,1.07
2022-12-08T04:05:16.282Z,1.04
2022-12-08T04:07:43.636Z,1.03
2022-12-08T04:10:11.192Z,1.01
2022-12-08T04:12:38.568Z,0.99
2022-12-08T04:15:06.255Z,0.97
2022-12-08T04:17:33.501Z,0.96
2022-12-08T04:20:00.803Z,0.96
2022-12-08T04:22:28.110Z,0.97
2022-12-08T04:24:55.488Z,0.97
2022-12-08T04:27:22.726Z,0.97
2022-12-08T04:29:50.072Z,0.97
2022-12-08T04:32:17.494Z,0.96
2022-12-08T04:34:44.794Z,0.99
2022-12-08T04:37:11.993Z,1.01
2022-12-08T04:39:39.191Z,1.02
2022-12-08T04:42:06.413Z,1.05
2022-12-08T04:44:33.668Z,1.07
2022-12-08T04:47:00.976Z,1.08
2022-12-08T04:49:28.238Z,1.09
2022-12-08T04:51:55.598Z,1.09
2022-12-08T04:54:22.982Z,1.10
2022-12-08T04:56:50.225Z,1.10
2022-12-08T04:59:17.538Z,1.09
2022-12-08T05:01:44.987Z,1.07
2022-12-08T05:04:12.375Z,1.06
2022-12-08T05:06:39.632Z,1.07
2022-12-08T05:09:06.986Z,1.09
2022-12-08T05:11:34.248Z,1.10
2022-12-08T05:14:01.477Z,1.13
2022-12-08T05:16:28.746Z,1.15
2022-12-08T05:18:55.952Z,1.17
2022-12-08T05:21:23.177Z,1.20
2022-12-08T05:23:50.442Z,1.23
2022-12-08T05:26:17.639Z,1.23
2022-12-08T05:28:45.003Z,1.24
2022-12-08T05:31:13.765Z,1.24
2022-12-08T05:33:41.440Z,1.24
2022-12-08T05:36:10.287Z,1.23
2022-12-08T05:38:37.696Z,1.20
2022-12-08T05:41:06.983Z,1.15
2022-12-08T05:43:34.330Z,1.10
2022-12-08T05:46:01.863Z,1.08
2022-12-08T05:48:29.373Z,1.07
2022-12-08T05:50:56.719Z,1.02
2022-12-08T05:53:24.052Z,0.96
2022-12-08T05:55:51.258Z,0.88
2022-12-08T05:58:20.500Z,0.81
2022-12-08T06:00:48.941Z,0.75
2022-12-08T06:03:18.257Z,0.68
2022-12-08T06:05:47.361Z,0.62
2022-12-08T06:08:14.848Z,0.57
2022-12-08T06:10:43.897Z,0.54
2022-12-08T06:13:11.178Z,0.51
2022-12-08T06:15:39.188Z,0.50
2022-12-08T06:18:07.760Z,0.49
2022-12-08T06:20:35.321Z,0.48
2022-12-08T06:23:03.505Z,0.47
2022-12-08T06:25:30.990Z,0.47
2022-12-08T06:27:58.285Z,0.48
2022-12-08T06:30:26.094Z,0.49
2022-12-08T06:32:53.316Z,0.49
2022-12-08T06:35:22.281Z,0.47
2022-12-08T06:37:51.541Z,0.46
2022-12-08T06:40:18.851Z,0.43
2022-12-08T06:42:46.865Z,0.41
2022-12-08T06:45:17.094Z,0.40
2022-12-08T06:47:44.658Z,0.40
2022-12-08T06:50:13.821Z,0.39
2022-12-08T06:52:51.563Z,0.38
2022-12-08T06:55:57.456Z,0.38
2022-12-08T06:58:13.824Z,0.35
2022-12-08T07:00:41.951Z,0.35
2022-12-08T07:03:10.937Z,0.34
2022-12-08T07:05:39.154Z,0.35
2022-12-08T07:08:08.612Z,0.39
2022-12-08T07:10:36.745Z,0.42
2022-12-08T07:13:04.461Z,0.42
2022-12-08T07:15:31.957Z,0.39
2022-12-08T07:18:00.243Z,0.41
2022-12-08T07:20:28.433Z,0.42
2022-12-08T07:22:56.020Z,0.43
2022-12-08T07:25:23.975Z,0.42
2022-12-08T07:27:52.673Z,0.41
2022-12-08T07:30:20.680Z,0.38
2022-12-08T07:32:47.890Z,0.36
2022-12-08T07:35:15.223Z,0.35
2022-12-08T07:37:43.098Z,0.32
2022-12-08T07:40:11.302Z,0.31
2022-12-08T07:42:38.521Z,0.30
2022-12-08T07:45:06.256Z,0.27
2022-12-08T07:47:33.490Z,0.26
2022-12-08T07:50:00.784Z,0.25
2022-12-08T07:52:28.024Z,0.24
2022-12-08T07:54:55.904Z,0.24
2022-12-08T07:57:23.281Z,0.23
2022-12-08T07:59:50.493Z,0.21
2022-12-08T08:02:25.352Z,0.18
2022-12-08T08:04:54.467Z,0.16
2022-12-08T08:07:21.825Z,0.14
2022-12-08T08:09:49.028Z,0.13
2022-12-08T08:12:31.472Z,0.10
2022-12-08T08:15:00.670Z,0.08
2022-12-08T08:17:28.716Z,0.04
2022-12-08T08:19:59.237Z,0.03
2022-12-08T08:22:28.470Z,0.02
2022-12-08T08:24:55.963Z,0.01
2022-12-08T08:27:23.144Z,0.00
2022-12-08T08:29:50.499Z,0.02
2022-12-08T08:32:17.957Z,0.02
2022-12-08T08:34:47.277Z,0.06
2022-12-08T08:37:14.596Z,0.09
2022-12-08T08:39:43.146Z,0.12
2022-12-08T08:42:10.374Z,0.16
2022-12-08T08:44:39.092Z,0.20
2022-12-08T08:47:06.468Z,0.24
2022-12-08T08:49:33.589Z,0.28
2022-12-08T08:52:00.868Z,0.30
2022-12-08T08:54:31.699Z,0.32
2022-12-08T08:57:00.130Z,0.35
2022-12-08T08:59:30.504Z,0.37
2022-12-08T09:01:57.883Z,0.41
2022-12-08T09:04:25.762Z,0.43
2022-12-08T09:06:53.050Z,0.47
2022-12-08T09:09:20.518Z,0.51
2022-12-08T09:11:47.817Z,0.56
2022-12-08T09:14:15.524Z,0.62
2022-12-08T09:16:44.353Z,0.67
2022-12-08T09:19:11.733Z,0.73
2022-12-08T09:21:40.163Z,0.77
2022-12-08T09:24:08.506Z,0.81
2022-12-08T09:26:35.904Z,0.85
2022-12-08T09:29:03.213Z,0.89
2022-12-08T09:31:30.607Z,0.94
2022-12-08T09:33:58.458Z,1.00
2022-12-08T09:36:27.067Z,1.06
2022-12-08T09:38:54.944Z,1.11
2022-12-08T09:41:50.122Z,1.16
2022-12-08T09:44:49.111Z,1.24
2022-12-08T09:47:41.340Z,1.28
2022-12-08T09:50:29.902Z,1.30
2022-12-08T09:52:59.238Z,1.33
2022-12-08T09:55:51.662Z,1.35
2022-12-08T09:58:30.057Z,1.43
2022-12-08T10:00:59.380Z,1.48
2022-12-08T10:03:30.293Z,1.59
2022-12-08T10:06:03.411Z,1.66
2022-12-08T10:08:46.801Z,1.72
2022-12-08T10:11:22.202Z,1.77
2022-12-08T10:14:13.170Z,1.77
2022-12-08T10:16:46.309Z,1.75
2022-12-08T10:19:23.770Z,1.74
2022-12-08T10:21:53.173Z,1.71
2022-12-08T10:24:32.524Z,1.68
2022-12-08T10:27:01.783Z,1.68
2022-12-08T10:29:30.344Z,1.72
2022-12-08T10:31:59.591Z,1.79
2022-12-08T10:34:27.253Z,1.84
2022-12-08T10:37:00.609Z,1.93
2022-12-08T10:39:39.920Z,2.03
2022-12-08T10:42:07.611Z,2.11
2022-12-08T10:44:49.859Z,2.18
2022-12-08T10:47:21.855Z,2.24
2022-12-08T10:50:07.297Z,2.30
2022-12-08T10:52:39.927Z,2.32
2022-12-08T10:55:21.475Z,2.40
2022-12-08T10:57:49.265Z,2.44
2022-12-08T11:00:20.427Z,2.50
2022-12-08T11:02:58.904Z,2.58
2022-12-08T11:05:33.567Z,2.65
2022-12-08T11:08:01.872Z,2.71
2022-12-08T11:10:35.028Z,2.77
2022-12-08T11:13:05.286Z,2.84
2022-12-08T11:15:37.842Z,2.92
2022-12-08T11:18:29.842Z,2.97
2022-12-08T11:21:12.944Z,3.04
2022-12-08T11:23:42.830Z,3.11
2022-12-08T11:26:25.578Z,3.19
2022-12-08T11:28:54.323Z,3.24
2022-12-08T11:31:29.048Z,3.29
2022-12-08T11:33:56.592Z,3.30
2022-12-08T11:36:27.287Z,3.30
2022-12-08T11:38:59.884Z,3.28
2022-12-08T11:41:36.076Z,3.32
2022-12-08T11:44:47.818Z,3.39
2022-12-08T11:47:26.486Z,3.42
2022-12-08T11:50:03.650Z,3.41
2022-12-08T11:52:42.265Z,3.44
2022-12-08T11:55:15.648Z,3.48
2022-12-08T11:57:46.669Z,3.47
2022-12-08T12:00:17.241Z,3.47
2022-12-08T12:02:51.354Z,3.46
2022-12-08T12:06:13.142Z,3.49
2022-12-08T12:08:52.678Z,3.47
2022-12-08T12:12:14.087Z,3.45
2022-12-08T12:14:59.819Z,3.38
2022-12-08T12:17:51.165Z,3.30
2022-12-08T12:20:30.770Z,3.23
2022-12-08T12:23:13.544Z,3.18
2022-12-08T12:26:09.812Z,3.13
2022-12-08T12:28:57.100Z,3.09
2022-12-08T12:31:29.829Z,3.08
2022-12-08T12:34:35.901Z,3.02
2022-12-08T12:37:13.134Z,2.99
2022-12-08T12:39:52.773Z,2.98
2022-12-08T12:42:40.019Z,2.99
2022-12-08T12:45:35.532Z,3.03
2022-12-08T12:48:02.735Z,3.07
2022-12-08T12:50:41.849Z,3.10
2022-12-08T12:53:19.170Z,3.15
2022-12-08T12:55:47.684Z,3.17
2022-12-08T12:58:30.271Z,3.17
2022-12-08T13:01:13.023Z,3.18
2022-12-08T13:03:45.919Z,3.19
2022-12-08T13:06:15.392Z,3.16
2022-12-08T13:08:55.162Z,3.12
2022-12-08T13:11:24.343Z,3.13
2022-12-08T13:14:01.211Z,3.08
2022-12-08T13:16:37.024Z,3.05
2022-12-08T13:19:05.984Z,3.01
2022-12-08T13:21:36.959Z,2.95
2022-12-08T13:24:10.569Z,2.88
2022-12-08T13:26:46.778Z,2.84
2022-12-08T13:29:25.047Z,2.80
2022-12-08T13:32:02.029Z,2.78
2022-12-08T13:34:48.067Z,2.78
2022-12-08T13:37:21.556Z,2.76
2022-12-08T13:39:58.011Z,2.75
2022-12-08T13:42:36.149Z,2.75
2022-12-08T13:45:48.756Z,2.73
2022-12-08T13:50:09.880Z,2.71
2022-12-08T13:53:34.957Z,2.69
2022-12-08T13:57:29.674Z,2.64
2022-12-08T14:00:08.399Z,2.60
2022-12-08T14:02:47.684Z,2.58
2022-12-08T14:05:35.167Z,2.56
2022-12-08T14:08:51.013Z,2.56
2022-12-08T14:11:33.584Z,2.58
2022-12-08T14:14:04.491Z,2.58
2022-12-08T14:16:42.167Z,2.59
2022-12-08T14:19:26.040Z,2.59
2022-12-08T14:22:16.671Z,2.59
2022-12-08T14:24:49.642Z,2.58
2022-12-08T14:27:21.014Z,2.57
2022-12-08T14:29:56.612Z,2.56
2022-12-08T14:32:37.803Z,2.57
2022-12-08T14:35:08.399Z,2.54
2022-12-08T14:37:43.861Z,2.53
2022-12-08T14:40:24.402Z,2.49
2022-12-08T14:43:14.758Z,2.47
2022-12-08T14:46:02.731Z,2.42
2022-12-08T14:48:36.492Z,2.39
2022-12-08T14:51:03.730Z,2.33
2022-12-08T14:53:59.246Z,2.28
2022-12-08T14:56:52.989Z,2.24
2022-12-08T14:59:26.017Z,2.18
2022-12-08T15:02:09.279Z,2.13
2022-12-08T15:04:42.862Z,2.05
2022-12-08T15:07:17.403Z,2.00
2022-12-08T15:09:49.098Z,1.92
2022-12-08T15:12:27.181Z,1.85
2022-12-08T15:15:10.171Z,1.79
2022-12-08T15:17:40.120Z,1.72
2022-12-08T15:20:31.662Z,1.65
2022-12-08T15:23:02.606Z,1.58
2022-12-08T15:25:30.156Z,1.50
2022-12-08T15:27:58.458Z,1.42
2022-12-08T15:30:30.030Z,1.35
2022-12-08T15:32:57.420Z,1.29
2022-12-08T15:35:25.068Z,1.22
2022-12-08T15:37:52.401Z,1.15
2022-12-08T15:40:26.132Z,1.10
2022-12-08T15:42:53.902Z,1.06
2022-12-08T15:45:28.826Z,1.00
2022-12-08T15:47:56.622Z,0.94
2022-12-08T15:50:24.385Z,0.90
2022-12-08T15:52:51.712Z,0.86
2022-12-08T15:55:21.032Z,0.82
2022-12-08T16:00:57.372Z,0.71
2022-12-08T16:09:19.415Z,0.53
2022-12-08T16:12:08.465Z,0.49
2022-12-08T16:17:27.181Z,0.39
2022-12-08T16:19:55.387Z,0.36
2022-12-08T16:25:20.782Z,0.28
2022-12-08T16:28:01.244Z,0.25
2022-12-08T16:30:30.870Z,0.21
2022-12-08T16:32:59.070Z,0.16
2022-12-08T16:35:27.119Z,0.13
2022-12-08T16:37:54.599Z,0.10
2022-12-08T16:40:23.076Z,0.06
2022-12-08T16:42:50.594Z,0.03
2022-12-08T16:45:23.791Z,-0.01
2022-12-08T16:47:54.607Z,-0.03
2022-12-08T16:50:23.455Z,-0.06
2022-12-08T16:53:03.415Z,-0.10
2022-12-08T16:55:31.559Z,-0.11
2022-12-08T16:58:00.598Z,-0.13
2022-12-08T17:00:29.642Z,-0.15
2022-12-08T17:02:58.582Z,-0.18
2022-12-08T17:05:26.406Z,-0.18
2022-12-08T17:07:54.874Z,-0.20
2022-12-08T17:10:26.153Z,-0.21
2022-12-08T17:12:54.803Z,-0.23
2022-12-08T17:15:24.841Z,-0.24
2022-12-08T17:17:53.114Z,-0.26
2022-12-08T17:20:23.552Z,-0.29
2022-12-08T17:22:53.292Z,-0.31
2022-12-08T17:25:20.712Z,-0.32
2022-12-08T17:27:47.985Z,-0.34
2022-12-08T17:30:19.239Z,-0.35
2022-12-08T17:32:46.958Z,-0.37
2022-12-08T17:35:15.166Z,-0.41
2022-12-08T17:37:43.403Z,-0.43
2022-12-08T17:40:11.895Z,-0.45
2022-12-08T17:42:39.441Z,-0.46
2022-12-08T17:45:08.400Z,-0.49
2022-12-08T17:47:36.755Z,-0.50
2022-12-08T17:50:05.209Z,-0.52
2022-12-08T17:52:33.101Z,-0.54
2022-12-08T17:55:00.373Z,-0.56
2022-12-08T17:57:27.670Z,-0.58
2022-12-08T17:59:55.005Z,-0.60
2022-12-08T18:02:22.431Z,-0.62
2022-12-08T18:04:49.979Z,-0.63
2022-12-08T18:07:17.540Z,-0.64
2022-12-08T18:09:44.918Z,-0.66
2022-12-08T18:12:12.204Z,-0.69
2022-12-08T18:14:39.804Z,-0.70
2022-12-08T18:17:07.131Z,-0.71
2022-12-08T18:19:34.450Z,-0.73
2022-12-08T18:22:01.750Z,-0.76
2022-12-08T18:24:29.109Z,-0.76
2022-12-08T18:26:57.873Z,-0.79
2022-12-08T18:29:28.063Z,-0.81
2022-12-08T18:31:55.566Z,-0.82
2022-12-08T18:34:22.807Z,-0.85
2022-12-08T18:36:50.265Z,-0.86
2022-12-08T18:39:22.488Z,-0.88
2022-12-08T18:41:50.357Z,-0.89
2022-12-08T18:44:18.339Z,-0.91
2022-12-08T18:46:46.257Z,-0.94
2022-12-08T18:49:16.086Z,-0.94
2022-12-08T18:51:43.869Z,-0.95
2022-12-08T18:54:12.427Z,-0.96
2022-12-08T18:56:39.763Z,-0.98
2022-12-08T18:59:11.030Z,-0.99
2022-12-08T19:01:39.763Z,-0.98
2022-12-08T19:04:27.836Z,-1.00
2022-12-08T19:06:57.104Z,-1.02
2022-12-08T19:09:26.852Z,-1.03
2022-12-08T19:11:55.171Z,-1.03
2022-12-08T19:14:28.190Z,-1.01
2022-12-08T19:16:59.108Z,-1.02
2022-12-08T19:19:28.067Z,-1.03
2022-12-08T19:21:56.163Z,-1.04
2022-12-08T19:24:24.010Z,-1.05
2022-12-08T19:26:51.288Z,-1.07
2022-12-08T19:29:18.705Z,-1.09
2022-12-08T19:31:46.076Z,-1.11
2022-12-08T19:34:14.071Z,-1.10
2022-12-08T19:36:44.526Z,-1.12
2022-12-08T19:39:34.513Z,-1.13
2022-12-08T19:42:20.724Z,-1.14
2022-12-08T19:44:53.877Z,-1.20
2022-12-08T19:47:27.156Z,-1.20
2022-12-08T19:50:15.453Z,-1.21
2022-12-08T19:52:43.672Z,-1.22
2022-12-08T19:55:11.135Z,-1.24
2022-12-08T19:57:38.558Z,-1.25
2022-12-08T20:00:07.270Z,-1.25
2022-12-08T20:02:37.395Z,-1.27
2022-12-08T20:05:06.559Z,-1.27
2022-12-08T20:07:34.665Z,-1.27
2022-12-08T20:10:08.334Z,-1.28
2022-12-08T20:12:35.872Z,-1.30
2022-12-08T20:15:03.308Z,-1.30
2022-12-08T20:17:31.268Z,-1.31
2022-12-08T20:20:03.869Z,-1.31
2022-12-08T20:22:34.464Z,-1.33
2022-12-08T20:25:02.289Z,-1.34
2022-12-08T20:27:29.698Z,-1.35
2022-12-08T20:29:56.952Z,-1.37
2022-12-08T20:32:24.258Z,-1.38
2022-12-08T20:34:51.580Z,-1.40
2022-12-08T20:37:19.814Z,-1.43
2022-12-08T20:39:47.215Z,-1.45
2022-12-08T20:42:14.487Z,-1.46
2022-12-08T20:44:44.744Z,-1.47
2022-12-08T20:47:13.334Z,-1.49
2022-12-08T20:49:41.200Z,-1.53
2022-12-08T20:52:09.174Z,-1.53
2022-12-08T20:54:37.888Z,-1.54
2022-12-08T20:57:05.792Z,-1.52
2022-12-08T20:59:33.412Z,-1.51
2022-12-08T21:02:00.880Z,-1.49
2022-12-08T21:04:28.552Z,-1.51
2022-12-08T21:06:56.123Z,-1.51
2022-12-08T21:09:23.766Z,-1.52
2022-12-08T21:11:51.298Z,-1.53
2022-12-08T21:14:18.890Z,-1.54
2022-12-08T21:16:46.747Z,-1.56
2022-12-08T21:19:14.307Z,-1.60
2022-12-08T21:21:41.688Z,-1.59
2022-12-08T21:24:10.996Z,-1.59
2022-12-08T21:26:38.578Z,-1.59
2022-12-08T21:29:06.071Z,-1.57
2022-12-08T21:31:33.781Z,-1.58
2022-12-08T21:34:02.162Z,-1.57
2022-12-08T21:36:31.076Z,-1.60
2022-12-08T21:39:01.201Z,-1.61
2022-12-08T21:41:48.331Z,-1.61
2022-12-08T21:44:20.279Z,-1.60
2022-12-08T21:46:48.465Z,-1.61
2022-12-08T21:49:17.351Z,-1.62
2022-12-08T21:51:45.105Z,-1.63
2022-12-08T21:54:18.278Z,-1.63
2022-12-08T21:56:48.029Z,-1.62
2022-12-08T21:59:16.181Z,-1.63
2022-12-08T22:01:44.494Z,-1.65
2022-12-08T22:04:16.014Z,-1.65
2022-12-08T22:06:43.505Z,-1.67
2022-12-08T22:09:13.466Z,-1.70
2022-12-08T22:11:42.089Z,-1.74
2022-12-08T22:14:14.380Z,-1.77
2022-12-08T22:16:44.456Z,-1.78
2022-12-08T22:19:12.681Z,-1.79
2022-12-08T22:21:39.980Z,-1.81
2022-12-08T22:24:07.875Z,-1.81
2022-12-08T22:26:35.402Z,-1.81
2022-12-08T22:29:02.900Z,-1.81
2022-12-08T22:31:31.497Z,-1.79
2022-12-08T22:33:59.726Z,-1.79
2022-12-08T22:36:28.144Z,-1.78
2022-12-08T22:38:56.617Z,-1.80
2022-12-08T22:41:24.439Z,-1.80
2022-12-08T22:43:51.975Z,-1.80
2022-12-08T22:46:22.751Z,-1.81
2022-12-08T22:48:51.464Z,-1.80
2022-12-08T22:51:19.351Z,-1.80
2022-12-08T22:53:48.367Z,-1.80
2022-12-08T22:56:17.910Z,-1.78
2022-12-08T22:58:45.527Z,-1.77
2022-12-08T23:01:25.480Z,-1.78
2022-12-08T23:03:53.384Z,-1.76
2022-12-08T23:06:21.099Z,-1.73
2022-12-08T23:08:48.483Z,-1.73
2022-12-08T23:11:16.216Z,-1.72
2022-12-08T23:13:44.114Z,-1.69
2022-12-08T23:16:12.042Z,-1.68
2022-12-08T23:18:46.361Z,-1.66
2022-12-08T23:21:17.237Z,-1.66
2022-12-08T23:23:44.794Z,-1.67
2022-12-08T23:26:23.860Z,-1.68
2022-12-08T23:28:51.895Z,-1.67
2022-12-08T23:31:20.183Z,-1.68
2022-12-08T23:33:48.027Z,-1.68
2022-12-08T23:36:16.574Z,-1.68
2022-12-08T23:38:44.280Z,-1.67
2022-12-08T23:41:14.297Z,-1.66
2022-12-08T23:43:47.389Z,-1.65
2022-12-08T23:46:16.865Z,-1.66
2022-12-08T23:48:44.715Z,-1.68
2022-12-08T23:51:12.777Z,-1.70
2022-12-08T23:53:40.607Z,-1.72
2022-12-08T23:56:13.521Z,-1.74
2022-12-08T23:58:44.141Z,-1.75
